Terminal Aerodrome Forecast
Issued by NWS Shreveport, LA

Home | Current Version | Previous Version | Text Only | Print | Product List | Glossary On
Versions: 1 2 3 4 5 6 7 8 9 10 11 12 13 14 15
000
FTUS44 KSHV 210500
TAFMLU
TAF
KMLU 210522Z 2106/2206 VRB03KT P6SM FEW250
     FM210900 VRB03KT P6SM SCT050 BKN250
      TEMPO 2110/2113 3SM BR
     FM211600 20007KT P6SM BKN050 OVC120
     FM212000 20008KT P6SM BKN060 BKN250
     FM220100 21007KT P6SM VCTS BKN050CB OVC100=

USA.gov is the U.S. government's official web portal to all federal, state and local government web resources and services.